Time;durP1;ratioP1;P1;durP2;ratioP2;P2;SDS_P1;SDS_P2;PMS_P1;PMS_P2;Temp;Humidity;BMP_temperature;BMP_pressure;BME280_temperature;BME280_humidity;BME280_pressure;Samples;Min_cycle;Max_cycle;Signal;HPM_P1;HPM_P2
2024/03/31 00:01:18;;;;;;;27.92;6.43;;;14.50;65.20;;;;;;5012192;28;20585;-82
2024/03/31 00:03:44;;;;;;;22.70;5.10;;;14.50;64.90;;;;;;4995204;28;20019;-82
2024/03/31 00:06:11;;;;;;;25.58;5.18;;;14.50;65.00;;;;;;4994436;28;20033;-83
2024/03/31 00:08:37;;;;;;;27.65;6.35;;;14.40;65.00;;;;;;5013416;28;20029;-82
2024/03/31 00:11:06;;;;;;;35.05;6.93;;;14.50;64.80;;;;;;5012319;28;20096;-83
2024/03/31 00:13:32;;;;;;;23.95;4.72;;;14.50;64.70;;;;;;4994724;28;20037;-83
2024/03/31 00:15:58;;;;;;;26.48;6.88;;;14.60;64.40;;;;;;5002657;28;20510;-82
2024/03/31 00:18:24;;;;;;;28.10;5.72;;;14.70;64.20;;;;;;4995026;28;20029;-82
2024/03/31 00:20:54;;;;;;;40.38;6.80;;;14.70;63.70;;;;;;4995087;28;20038;-82
2024/03/31 00:23:21;;;;;;;22.85;5.07;;;14.80;63.90;;;;;;5011625;28;20130;-81
2024/03/31 00:25:46;;;;;;;21.83;4.50;;;14.90;63.60;;;;;;4994417;28;20406;-82
2024/03/31 00:28:12;;;;;;;21.88;4.93;;;14.90;63.50;;;;;;4994676;28;20034;-82
2024/03/31 00:30:38;;;;;;;22.77;5.20;;;15.00;62.90;;;;;;5000001;28;20113;-82
2024/03/31 00:33:04;;;;;;;22.05;4.97;;;15.00;63.00;;;;;;5011477;28;20029;-82
2024/03/31 00:35:29;;;;;;;36.88;5.80;;;15.00;63.20;;;;;;4994807;28;20506;-82
2024/03/31 00:37:55;;;;;;;22.50;5.10;;;15.00;62.90;;;;;;4994552;28;20026;-81
2024/03/31 00:40:20;;;;;;;23.70;5.38;;;15.10;62.50;;;;;;5012073;28;20383;-81
2024/03/31 00:42:46;;;;;;;25.67;5.57;;;15.20;62.20;;;;;;4994198;28;20045;-81
2024/03/31 00:45:12;;;;;;;30.67;6.13;;;15.20;62.20;;;;;;4996450;28;20024;-81
2024/03/31 00:47:38;;;;;;;19.88;5.20;;;15.20;62.20;;;;;;5012019;28;20041;-81
2024/03/31 00:50:04;;;;;;;17.95;4.55;;;15.20;61.90;;;;;;4994252;28;20106;-81
2024/03/31 00:52:30;;;;;;;23.65;5.18;;;15.20;62.10;;;;;;4994172;28;20044;-83
2024/03/31 00:54:55;;;;;;;24.65;5.68;;;15.20;62.00;;;;;;4993097;28;20057;-82
2024/03/31 00:57:21;;;;;;;29.77;6.32;;;15.20;62.20;;;;;;5011147;28;20104;-83
2024/03/31 00:59:46;;;;;;;20.05;5.22;;;15.20;62.30;;;;;;5001510;28;20038;-81
2024/03/31 01:02:12;;;;;;;31.33;5.60;;;15.10;62.50;;;;;;4993171;28;20034;-82
2024/03/31 01:04:37;;;;;;;24.27;6.82;;;15.10;63.40;;;;;;5011107;28;20034;-82
2024/03/31 01:07:03;;;;;;;23.90;5.10;;;14.90;63.20;;;;;;4993476;28;20030;-83
2024/03/31 01:09:29;;;;;;;28.15;5.97;;;14.80;63.80;;;;;;5011681;28;20042;-82
2024/03/31 01:11:55;;;;;;;28.52;5.65;;;14.70;64.50;;;;;;5012256;28;20100;-82
2024/03/31 01:14:21;;;;;;;22.95;4.90;;;14.60;64.90;;;;;;4997956;28;20565;-82
2024/03/31 01:16:47;;;;;;;21.92;5.45;;;14.60;65.20;;;;;;5011743;28;20069;-82
2024/03/31 01:19:13;;;;;;;27.58;6.80;;;14.50;65.40;;;;;;4994185;28;20026;-82
2024/03/31 01:21:39;;;;;;;39.63;6.88;;;14.50;65.50;;;;;;4994340;28;20369;-82
2024/03/31 01:24:06;;;;;;;26.02;6.90;;;14.40;65.40;;;;;;4994162;28;20104;-82
2024/03/31 01:26:32;;;;;;;26.58;7.20;;;14.40;65.30;;;;;;4996640;28;20026;-82
2024/03/31 01:28:57;;;;;;;34.45;8.35;;;14.40;65.50;;;;;;4994007;28;20116;-82
2024/03/31 01:31:24;;;;;;;28.10;7.57;;;14.40;65.60;;;;;;4994164;28;20022;-82
2024/03/31 01:33:51;;;;;;;25.17;6.45;;;14.40;65.90;;;;;;4994175;28;20519;-81
2024/03/31 01:36:16;;;;;;;30.15;6.28;;;14.40;66.00;;;;;;5011504;28;20399;-81
2024/03/31 01:38:42;;;;;;;20.58;5.15;;;14.30;66.10;;;;;;5012179;28;20018;-81
2024/03/31 01:41:08;;;;;;;19.42;5.65;;;14.30;66.20;;;;;;4995768;28;20027;-82
2024/03/31 01:43:33;;;;;;;20.33;4.75;;;14.30;66.00;;;;;;4993964;28;20034;-82
2024/03/31 01:45:59;;;;;;;28.67;5.68;;;14.40;65.70;;;;;;4993838;28;20410;-82
2024/03/31 01:48:25;;;;;;;22.20;5.45;;;14.40;65.50;;;;;;4992903;28;20096;-82
2024/03/31 01:50:50;;;;;;;24.10;6.15;;;14.40;65.60;;;;;;4994366;28;20076;-82
2024/03/31 01:53:16;;;;;;;27.65;6.05;;;14.40;65.50;;;;;;4993759;28;20026;-82
2024/03/31 01:55:42;;;;;;;22.10;6.45;;;14.40;65.60;;;;;;4998869;28;20029;-82
2024/03/31 01:58:07;;;;;;;28.27;5.95;;;14.40;65.70;;;;;;4993659;28;20034;-81
2024/03/31 02:00:33;;;;;;;29.73;6.15;;;14.40;66.00;;;;;;5011020;28;20030;-82
2024/03/31 02:02:59;;;;;;;24.50;5.50;;;14.40;66.10;;;;;;4993418;28;20030;-82
2024/03/31 02:05:25;;;;;;;24.08;6.15;;;14.40;66.00;;;;;;4994529;28;20022;-81
2024/03/31 02:07:51;;;;;;;23.10;4.97;;;14.40;66.30;;;;;;4997627;28;20057;-81
2024/03/31 02:10:17;;;;;;;17.17;4.30;;;14.30;67.10;;;;;;4997484;28;20033;-82
2024/03/31 02:12:43;;;;;;;18.10;4.47;;;14.20;66.50;;;;;;4997358;28;20529;-82
2024/03/31 02:15:09;;;;;;;28.08;5.18;;;14.20;66.60;;;;;;4997456;28;20048;-82
2024/03/31 02:17:34;;;;;;;25.48;5.10;;;14.00;67.20;;;;;;4997627;28;20073;-82
2024/03/31 02:20:00;;;;;;;16.52;4.65;;;13.80;67.90;;;;;;5014995;28;20105;-83
2024/03/31 02:22:26;;;;;;;18.75;4.55;;;13.70;68.70;;;;;;5003018;28;20037;-83
2024/03/31 02:24:52;;;;;;;28.00;6.03;;;13.60;68.70;;;;;;4997360;28;20088;-83
2024/03/31 02:27:17;;;;;;;22.75;4.50;;;13.60;69.10;;;;;;4997057;28;20030;-82
2024/03/31 02:29:43;;;;;;;21.98;5.57;;;13.50;69.80;;;;;;5015215;28;20034;-82
2024/03/31 02:32:09;;;;;;;25.08;4.93;;;13.50;70.10;;;;;;5014255;28;20396;-82
2024/03/31 02:34:34;;;;;;;21.90;5.13;;;13.40;70.20;;;;;;4997187;28;20034;-82
2024/03/31 02:37:00;;;;;;;22.85;4.60;;;13.40;70.60;;;;;;5014193;28;20058;-82
2024/03/31 02:39:26;;;;;;;19.90;4.45;;;13.30;71.40;;;;;;5014620;28;20025;-82
2024/03/31 02:41:51;;;;;;;18.80;4.20;;;13.30;71.60;;;;;;4997339;28;20030;-82
2024/03/31 02:44:18;;;;;;;18.95;4.25;;;13.20;72.10;;;;;;4996853;28;20030;-82
2024/03/31 02:46:45;;;;;;;18.20;5.10;;;13.10;72.50;;;;;;5014349;28;20030;-82
2024/03/31 02:49:10;;;;;;;27.45;5.75;;;13.00;73.10;;;;;;4996806;28;20619;-82
2024/03/31 02:51:36;;;;;;;23.95;5.10;;;12.90;73.80;;;;;;5014202;28;20030;-82
2024/03/31 02:54:01;;;;;;;23.40;4.78;;;12.90;74.10;;;;;;5013800;28;20053;-82
2024/03/31 02:56:27;;;;;;;31.92;5.90;;;12.90;74.60;;;;;;4996846;28;20029;-83
2024/03/31 02:58:53;;;;;;;16.23;3.95;;;12.90;75.20;;;;;;4996587;28;20129;-82
2024/03/31 03:01:19;;;;;;;16.20;5.22;;;12.90;75.00;;;;;;4996169;28;20029;-82
2024/03/31 03:03:45;;;;;;;20.27;5.35;;;12.90;74.90;;;;;;5014228;28;20042;-83
2024/03/31 03:06:11;;;;;;;20.67;4.57;;;13.00;75.00;;;;;;4996015;28;20018;-82
2024/03/31 03:08:40;;;;;;;16.38;4.72;;;13.00;74.40;;;;;;4997151;28;20491;-82
2024/03/31 03:11:05;;;;;;;22.90;5.00;;;13.10;73.90;;;;;;5012537;28;20034;-82
2024/03/31 03:13:31;;;;;;;18.55;4.30;;;13.20;73.80;;;;;;5014218;28;20498;-83
2024/03/31 03:16:00;;;;;;;16.90;4.05;;;13.30;73.40;;;;;;4995946;28;20068;-82
2024/03/31 03:18:25;;;;;;;20.27;4.47;;;13.40;72.60;;;;;;4996013;28;20042;-83
2024/03/31 03:20:51;;;;;;;20.90;4.40;;;13.50;71.80;;;;;;5014182;28;20126;-83
2024/03/31 03:23:17;;;;;;;15.98;3.90;;;13.60;70.90;;;;;;4996365;28;20049;-83
2024/03/31 03:25:42;;;;;;;17.63;4.35;;;13.60;71.00;;;;;;5013501;28;20113;-83
2024/03/31 03:28:08;;;;;;;15.13;4.20;;;13.60;70.60;;;;;;4995938;28;20054;-83
2024/03/31 03:30:37;;;;;;;15.50;4.18;;;13.70;70.40;;;;;;4996005;28;20506;-83
2024/03/31 03:33:03;;;;;;;22.23;4.35;;;13.80;70.20;;;;;;5013681;28;20096;-83
2024/03/31 03:35:30;;;;;;;18.35;6.45;;;13.70;70.10;;;;;;5013978;28;20052;-82
2024/03/31 03:37:56;;;;;;;21.23;4.32;;;13.80;70.00;;;;;;5013466;28;20041;-83
2024/03/31 03:40:21;;;;;;;20.08;4.75;;;13.80;69.70;;;;;;5013216;28;20041;-82
2024/03/31 03:42:47;;;;;;;16.30;4.32;;;13.70;69.90;;;;;;4996044;28;20037;-83
2024/03/31 03:45:13;;;;;;;22.08;5.65;;;13.60;70.50;;;;;;4995610;28;20029;-83
2024/03/31 03:47:38;;;;;;;16.23;4.72;;;13.50;71.00;;;;;;4996375;28;20014;-83
2024/03/31 03:50:04;;;;;;;22.02;4.53;;;13.40;71.50;;;;;;4995308;28;20459;-83
2024/03/31 03:52:30;;;;;;;9.82;3.88;;;13.30;72.10;;;;;;5013299;28;20030;-82
2024/03/31 03:54:56;;;;;;;19.13;4.05;;;13.30;72.40;;;;;;5011502;28;20032;-83
2024/03/31 03:57:21;;;;;;;13.60;3.75;;;13.40;72.10;;;;;;5010755;28;20682;-82
2024/03/31 03:59:47;;;;;;;22.05;4.35;;;13.50;71.30;;;;;;4995836;28;20026;-83
2024/03/31 04:02:12;;;;;;;23.02;4.18;;;13.50;71.00;;;;;;4995377;28;20022;-83
2024/03/31 04:04:38;;;;;;;15.18;3.75;;;13.50;70.60;;;;;;4995200;28;20065;-83
2024/03/31 04:07:04;;;;;;;20.25;4.90;;;13.50;70.40;;;;;;5012919;28;20058;-83
2024/03/31 04:09:29;;;;;;;15.60;5.05;;;13.60;69.90;;;;;;5012771;28;20124;-83
2024/03/31 04:11:55;;;;;;;21.50;4.05;;;13.70;70.00;;;;;;4995858;28;20057;-83
2024/03/31 04:14:20;;;;;;;10.95;4.30;;;13.70;69.60;;;;;;4994968;28;20038;-83
2024/03/31 04:16:46;;;;;;;18.10;3.90;;;13.80;69.20;;;;;;5012750;28;20053;-83
2024/03/31 04:19:12;;;;;;;10.35;3.00;;;13.90;69.00;;;;;;4994893;28;21461;-83
2024/03/31 04:21:38;;;;;;;18.15;4.00;;;14.00;68.90;;;;;;4995388;28;20484;-83
2024/03/31 04:24:04;;;;;;;12.80;3.28;;;14.10;68.40;;;;;;4994898;28;20029;-83
2024/03/31 04:26:30;;;;;;;14.23;3.70;;;14.20;67.80;;;;;;5013195;28;20026;-83
2024/03/31 04:28:55;;;;;;;16.20;3.80;;;14.20;67.40;;;;;;4994555;28;20373;-83
2024/03/31 04:31:21;;;;;;;10.13;3.15;;;14.30;66.80;;;;;;4994183;28;20037;-83
2024/03/31 04:33:47;;;;;;;14.50;4.00;;;14.40;66.50;;;;;;4994707;28;20060;-83
2024/03/31 04:36:13;;;;;;;12.93;3.92;;;14.40;66.10;;;;;;5011668;28;20127;-85
2024/03/31 04:38:39;;;;;;;13.60;3.13;;;14.40;66.40;;;;;;4995013;28;20018;-86
2024/03/31 04:41:06;;;;;;;16.23;3.33;;;14.40;66.40;;;;;;4994635;28;20033;-84
2024/03/31 04:43:32;;;;;;;14.73;3.92;;;14.40;66.70;;;;;;4994568;28;20037;-85
2024/03/31 04:46:04;;;;;;;10.00;3.33;;;14.30;66.80;;;;;;5012059;28;20029;-86
2024/03/31 04:48:32;;;;;;;12.15;3.78;;;14.40;66.70;;;;;;5012291;28;20042;-84
2024/03/31 04:51:04;;;;;;;12.77;4.18;;;14.30;67.10;;;;;;4994476;28;20468;-86
2024/03/31 04:53:33;;;;;;;13.27;3.45;;;14.40;66.50;;;;;;5012639;28;20022;-86
2024/03/31 04:56:02;;;;;;;8.60;2.60;;;14.60;66.40;;;;;;5011945;28;20219;-84
2024/03/31 04:58:28;;;;;;;12.10;3.10;;;14.70;64.80;;;;;;4994317;28;20462;-84
2024/03/31 05:00:54;;;;;;;15.30;2.72;;;14.90;63.90;;;;;;4993978;28;20044;-84
2024/03/31 05:03:24;;;;;;;16.75;3.20;;;15.00;63.50;;;;;;4994397;28;20121;-82
2024/03/31 05:05:51;;;;;;;12.43;2.65;;;15.10;63.40;;;;;;4994644;28;20470;-85
2024/03/31 05:08:16;;;;;;;5.93;2.17;;;15.20;62.90;;;;;;4994543;28;20381;-85
2024/03/31 05:10:59;;;;;;;12.98;3.05;;;15.30;62.20;;;;;;4994182;28;20149;-85
2024/03/31 05:13:27;;;;;;;11.55;2.75;;;15.40;61.80;;;;;;4983515;28;20173;-85
2024/03/31 05:16:10;;;;;;;13.23;3.72;;;15.50;61.70;;;;;;5011325;28;20069;-84
2024/03/31 05:18:36;;;;;;;;;;;15.60;61.00;;;;;;4995118;28;20108;-84
2024/03/31 05:21:04;;;;;;;13.38;2.97;;;15.60;61.20;;;;;;4993899;28;19910;-84
2024/03/31 05:23:31;;;;;;;11.85;2.72;;;15.60;60.90;;;;;;4994796;28;20060;-85
2024/03/31 05:25:56;;;;;;;9.85;2.70;;;15.70;60.70;;;;;;5011515;28;20389;-85
2024/03/31 05:28:23;;;;;;;15.52;3.08;;;15.80;60.50;;;;;;4993775;28;20132;-85
2024/03/31 05:30:49;;;;;;;10.73;2.85;;;15.90;60.20;;;;;;5011600;28;20049;-85
2024/03/31 05:33:15;;;;;;;16.88;3.70;;;16.00;59.70;;;;;;4993931;28;20026;-85
2024/03/31 05:35:41;;;;;;;10.25;2.85;;;16.10;59.20;;;;;;4994286;28;20076;-84
2024/03/31 05:38:11;;;;;;;10.85;3.13;;;16.20;59.10;;;;;;5011674;28;20034;-85
2024/03/31 05:40:37;;;;;;;15.05;2.90;;;16.20;58.80;;;;;;4994374;28;20104;-85
2024/03/31 05:43:03;;;;;;;14.18;3.22;;;16.30;58.40;;;;;;4997805;28;20064;-84
2024/03/31 05:45:29;;;;;;;10.07;2.42;;;16.40;58.40;;;;;;5015332;28;20499;-84
2024/03/31 05:47:55;;;;;;;10.48;2.10;;;16.40;58.60;;;;;;4997853;28;20029;-84
2024/03/31 05:50:20;;;;;;;15.23;3.42;;;16.50;58.80;;;;;;5015734;28;20470;-84
2024/03/31 05:52:47;;;;;;;15.48;3.60;;;16.50;58.70;;;;;;4997847;28;20508;-84
2024/03/31 05:55:12;;;;;;;8.57;2.38;;;16.60;58.00;;;;;;4997271;28;20045;-82
2024/03/31 05:57:38;;;;;;;9.60;3.22;;;16.70;58.10;;;;;;4997417;28;20087;-85
2024/03/31 06:00:04;;;;;;;7.13;2.47;;;16.70;58.40;;;;;;5000351;28;20022;-84
2024/03/31 06:02:30;;;;;;;10.75;2.80;;;16.80;58.00;;;;;;4987870;28;20484;-84
2024/03/31 06:04:57;;;;;;;17.67;3.80;;;16.90;58.20;;;;;;5013640;28;20095;-83
2024/03/31 06:07:23;;;;;;;12.23;3.10;;;16.90;58.20;;;;;;4997493;28;20080;-84
2024/03/31 06:09:49;;;;;;;10.88;2.67;;;17.00;57.80;;;;;;5014933;28;20038;-84
2024/03/31 06:12:15;;;;;;;10.57;3.00;;;17.00;57.10;;;;;;4996695;28;20492;-83
2024/03/31 06:14:40;;;;;;;8.45;2.38;;;17.00;57.20;;;;;;5014888;28;20037;-84
2024/03/31 06:17:06;;;;;;;9.68;2.92;;;17.00;57.00;;;;;;4997320;28;20826;-82
2024/03/31 06:19:32;;;;;;;7.18;2.50;;;17.00;57.20;;;;;;4996514;28;20026;-82
2024/03/31 06:21:57;;;;;;;13.13;3.10;;;17.00;57.10;;;;;;4997162;28;20488;-83
2024/03/31 06:24:23;;;;;;;7.88;2.38;;;17.10;57.20;;;;;;4997194;28;20026;-82
2024/03/31 06:26:49;;;;;;;8.43;2.65;;;17.10;56.60;;;;;;5013748;28;20026;-82
2024/03/31 06:29:14;;;;;;;7.00;2.50;;;17.20;56.40;;;;;;4993883;28;20048;-83
2024/03/31 06:31:40;;;;;;;8.88;2.92;;;17.40;55.80;;;;;;5012636;28;20034;-82
2024/03/31 06:34:05;;;;;;;9.90;2.88;;;17.50;55.70;;;;;;5011074;28;20507;-82
2024/03/31 06:36:31;;;;;;;9.73;2.90;;;17.70;55.40;;;;;;5012624;28;20018;-82
2024/03/31 06:38:57;;;;;;;8.32;2.45;;;17.90;54.70;;;;;;4994284;28;20028;-82
2024/03/31 06:41:22;;;;;;;9.90;3.10;;;18.10;54.30;;;;;;4996469;28;20080;-83
2024/03/31 06:43:48;;;;;;;8.13;2.50;;;18.20;53.90;;;;;;5014381;28;20033;-83
2024/03/31 06:46:14;;;;;;;14.65;2.63;;;18.30;53.30;;;;;;5014412;28;20042;-82
2024/03/31 06:48:39;;;;;;;9.23;2.85;;;18.40;53.20;;;;;;4996649;28;20539;-82
2024/03/31 06:51:05;;;;;;;7.32;2.47;;;18.60;52.70;;;;;;4996524;28;20026;-83
2024/03/31 06:53:31;;;;;;;11.27;2.75;;;18.70;51.90;;;;;;5014175;28;20022;-82
2024/03/31 06:55:56;;;;;;;15.82;2.85;;;18.80;51.60;;;;;;5014435;28;20030;-83
2024/03/31 06:58:22;;;;;;;11.30;2.92;;;18.90;51.60;;;;;;4996604;28;20451;-82
2024/03/31 07:00:48;;;;;;;10.43;2.75;;;19.00;50.70;;;;;;4996521;28;20026;-82
2024/03/31 07:03:13;;;;;;;11.68;2.47;;;19.10;49.80;;;;;;4995937;28;20021;-82
2024/03/31 07:05:39;;;;;;;13.57;3.15;;;19.20;50.20;;;;;;4997051;28;20018;-82
2024/03/31 07:08:05;;;;;;;13.98;3.15;;;19.40;49.50;;;;;;5013726;28;20060;-83
2024/03/31 07:10:30;;;;;;;11.02;2.78;;;19.50;50.00;;;;;;4996275;28;20040;-83
2024/03/31 07:12:56;;;;;;;9.85;2.20;;;19.60;49.90;;;;;;4996613;28;20562;-82
2024/03/31 07:15:22;;;;;;;7.93;2.63;;;19.80;49.20;;;;;;5013257;28;20037;-83
2024/03/31 07:17:48;;;;;;;7.80;2.15;;;19.80;48.50;;;;;;5014374;28;20036;-82
2024/03/31 07:20:14;;;;;;;12.63;2.30;;;20.00;48.30;;;;;;4996078;28;20038;-82
2024/03/31 07:22:40;;;;;;;13.13;2.35;;;20.10;47.60;;;;;;5014054;28;20449;-82
2024/03/31 07:25:06;;;;;;;9.63;2.50;;;20.20;47.60;;;;;;4995716;28;20065;-82
2024/03/31 07:27:32;;;;;;;8.55;2.88;;;20.20;47.10;;;;;;4996214;28;20022;-82
2024/03/31 07:29:57;;;;;;;11.40;2.78;;;20.30;46.60;;;;;;5012643;28;20073;-81
2024/03/31 07:32:23;;;;;;;10.85;3.00;;;20.40;45.90;;;;;;4998023;28;20056;-82
2024/03/31 07:34:49;;;;;;;13.63;3.28;;;20.40;45.70;;;;;;4995396;28;20037;-83
2024/03/31 07:37:14;;;;;;;16.40;2.80;;;20.40;46.80;;;;;;4995834;28;20381;-83
2024/03/31 07:39:40;;;;;;;7.55;2.65;;;20.50;46.60;;;;;;4995714;28;20110;-83
2024/03/31 07:42:06;;;;;;;12.68;2.05;;;20.60;47.10;;;;;;4995429;28;20117;-82
2024/03/31 07:44:31;;;;;;;6.68;2.20;;;20.70;46.70;;;;;;5013030;28;20066;-80
2024/03/31 07:46:58;;;;;;;12.07;3.05;;;20.70;46.20;;;;;;4994562;28;20061;-82
2024/03/31 07:49:24;;;;;;;12.07;2.58;;;20.70;45.30;;;;;;4994000;28;20095;-83
2024/03/31 07:51:49;;;;;;;11.68;3.42;;;20.80;44.70;;;;;;4992767;28;20573;-83
2024/03/31 07:54:15;;;;;;;11.05;2.70;;;20.80;44.30;;;;;;4993321;28;20419;-83
2024/03/31 07:56:41;;;;;;;11.15;2.83;;;21.00;45.00;;;;;;4994325;28;20054;-83
2024/03/31 07:59:06;;;;;;;14.85;2.15;;;21.10;44.60;;;;;;5011122;28;20578;-83
2024/03/31 08:01:32;;;;;;;15.73;2.88;;;21.10;44.30;;;;;;4993686;28;20045;-83
2024/03/31 08:03:57;;;;;;;10.35;3.28;;;21.20;43.10;;;;;;4993204;28;20048;-83
2024/03/31 08:06:23;;;;;;;11.13;3.05;;;21.20;43.00;;;;;;4993431;28;20026;-82
2024/03/31 08:08:49;;;;;;;13.48;2.97;;;21.30;42.40;;;;;;4993279;28;20037;-83
2024/03/31 08:11:14;;;;;;;10.98;3.05;;;21.30;42.10;;;;;;4992681;28;20499;-83
2024/03/31 08:13:41;;;;;;;11.80;2.97;;;21.30;43.20;;;;;;4992432;28;20547;-82
2024/03/31 08:16:06;;;;;;;15.88;3.10;;;21.30;42.50;;;;;;5009820;28;20054;-83
2024/03/31 08:18:32;;;;;;;11.63;3.88;;;21.40;41.80;;;;;;4992445;28;20034;-83
2024/03/31 08:20:57;;;;;;;11.10;2.55;;;21.50;42.20;;;;;;4992598;28;20029;-82
2024/03/31 08:23:23;;;;;;;12.73;2.92;;;21.60;42.50;;;;;;4993776;28;20021;-83
2024/03/31 08:25:52;;;;;;;12.63;2.92;;;21.60;41.90;;;;;;4994215;28;20030;-83
2024/03/31 08:28:18;;;;;;;12.98;2.83;;;21.70;42.10;;;;;;5011638;28;20037;-83
2024/03/31 08:30:46;;;;;;;17.33;3.47;;;21.80;41.50;;;;;;4993457;28;20377;-82
2024/03/31 08:33:12;;;;;;;16.63;2.78;;;21.70;41.20;;;;;;4993794;28;20021;-83
2024/03/31 08:35:38;;;;;;;19.67;3.40;;;21.70;41.80;;;;;;4994604;28;20387;-83
2024/03/31 08:38:04;;;;;;;16.30;2.67;;;21.70;41.30;;;;;;5011370;28;20100;-82
2024/03/31 08:40:31;;;;;;;17.20;3.40;;;21.80;42.40;;;;;;4993921;28;20045;-82
2024/03/31 08:43:05;;;;;;;24.45;4.45;;;21.70;41.80;;;;;;4993824;28;20049;-83
2024/03/31 08:45:31;;;;;;;20.08;3.33;;;21.70;41.40;;;;;;4993971;28;20542;-83
2024/03/31 08:47:59;;;;;;;21.45;4.05;;;21.70;41.30;;;;;;4993665;28;20087;-82
2024/03/31 08:50:25;;;;;;;17.95;3.10;;;21.70;40.70;;;;;;4994232;28;20017;-83
2024/03/31 08:52:52;;;;;;;15.43;3.15;;;21.80;39.90;;;;;;5011252;28;20045;-83
2024/03/31 08:55:18;;;;;;;16.48;2.95;;;22.00;40.30;;;;;;5011414;28;20420;-83
2024/03/31 08:57:43;;;;;;;16.88;4.00;;;22.10;40.20;;;;;;5011263;28;20029;-83
2024/03/31 09:00:10;;;;;;;15.35;3.45;;;22.10;39.20;;;;;;4993300;28;20054;-82
2024/03/31 09:02:37;;;;;;;18.35;4.28;;;22.10;39.40;;;;;;5011974;28;20018;-82
2024/03/31 09:05:04;;;;;;;17.15;4.05;;;22.30;39.80;;;;;;4993526;28;20021;-83
2024/03/31 09:07:31;;;;;;;15.23;3.35;;;22.40;39.70;;;;;;4993712;28;20076;-82
2024/03/31 09:09:57;;;;;;;25.33;5.05;;;22.40;39.00;;;;;;5011006;28;20072;-82
2024/03/31 09:12:23;;;;;;;13.27;3.90;;;22.60;38.70;;;;;;4993540;28;20065;-83
2024/03/31 09:14:49;;;;;;;16.65;4.30;;;22.60;38.10;;;;;;5011633;28;20029;-82
2024/03/31 09:17:14;;;;;;;13.43;4.35;;;22.70;38.00;;;;;;4993085;28;20053;-82
2024/03/31 09:19:40;;;;;;;26.83;5.50;;;22.80;38.40;;;;;;4993665;28;20522;-82
2024/03/31 09:22:07;;;;;;;19.15;4.47;;;22.80;38.10;;;;;;4993458;28;20117;-83
2024/03/31 09:24:33;;;;;;;19.95;3.60;;;22.70;37.70;;;;;;4993230;28;20030;-82
2024/03/31 09:26:59;;;;;;;24.33;4.20;;;22.70;37.10;;;;;;4992793;28;20034;-83
2024/03/31 09:29:26;;;;;;;18.58;4.47;;;22.70;36.80;;;;;;4993965;28;20036;-82
2024/03/31 09:32:11;;;;;;;18.35;4.68;;;22.60;37.50;;;;;;5010930;28;20029;-82
2024/03/31 09:34:42;;;;;;;27.27;4.13;;;22.60;37.40;;;;;;5003039;28;20033;-82
2024/03/31 09:37:09;;;;;;;26.77;5.43;;;22.50;37.30;;;;;;4993440;28;20045;-82
2024/03/31 09:39:35;;;;;;;21.13;4.65;;;22.40;37.30;;;;;;5011428;28;20030;-82
2024/03/31 09:42:01;;;;;;;23.60;4.10;;;22.40;37.00;;;;;;4996439;28;20539;-82
2024/03/31 09:44:28;;;;;;;23.10;5.32;;;22.40;36.50;;;;;;4994503;28;20029;-81
2024/03/31 09:46:54;;;;;;;27.38;5.15;;;22.50;37.40;;;;;;4993645;28;20037;-81
2024/03/31 09:49:28;;;;;;;25.65;5.38;;;22.40;36.90;;;;;;4993990;28;20045;-81
2024/03/31 09:51:59;;;;;;;18.33;3.85;;;22.40;37.20;;;;;;4993626;28;20038;-82
2024/03/31 09:54:45;;;;;;;31.67;4.50;;;22.40;38.40;;;;;;5006647;28;20510;-83
2024/03/31 09:57:13;;;;;;;27.95;4.35;;;22.40;38.10;;;;;;4993616;28;20026;-82
2024/03/31 09:59:49;;;;;;;25.55;5.15;;;22.50;37.80;;;;;;4993759;28;20022;-82
2024/03/31 10:02:16;;;;;;;33.58;4.85;;;22.60;38.00;;;;;;4993504;28;20030;-81
2024/03/31 10:04:55;;;;;;;30.50;6.13;;;22.80;37.50;;;;;;4993428;28;20439;-82
2024/03/31 10:07:22;;;;;;;23.45;5.63;;;22.90;37.20;;;;;;5010838;28;20030;-82
2024/03/31 10:09:48;;;;;;;36.00;6.18;;;22.90;36.40;;;;;;5010555;28;20050;-82
2024/03/31 10:12:16;;;;;;;30.88;5.57;;;23.00;36.60;;;;;;4993364;28;20020;-82
2024/03/31 10:14:43;;;;;;;27.45;5.28;;;23.20;36.80;;;;;;4994128;28;20025;-82
2024/03/31 10:17:09;;;;;;;42.40;6.65;;;23.40;36.90;;;;;;4992786;28;20049;-82
2024/03/31 10:19:36;;;;;;;35.70;7.50;;;23.60;37.30;;;;;;5010597;28;20132;-83
2024/03/31 10:22:03;;;;;;;32.47;5.97;;;23.60;36.10;;;;;;4992996;28;20554;-83
2024/03/31 10:24:30;;;;;;;44.65;8.00;;;23.60;36.50;;;;;;4992521;28;20068;-82
2024/03/31 10:26:56;;;;;;;41.08;7.53;;;23.70;35.50;;;;;;4991069;28;20483;-83
2024/03/31 10:29:22;;;;;;;43.05;16.85;;;23.70;35.60;;;;;;5011672;28;20073;-82
2024/03/31 10:31:48;;;;;;;49.92;41.42;;;23.70;34.90;;;;;;4995727;28;20029;-82
2024/03/31 10:34:13;;;;;;;41.75;7.32;;;23.70;34.90;;;;;;4996773;28;20049;-82
2024/03/31 10:36:41;;;;;;;46.03;8.63;;;23.70;34.50;;;;;;5014418;28;20045;-82
2024/03/31 10:39:09;;;;;;;42.05;8.35;;;23.80;35.30;;;;;;4992670;28;20511;-82
2024/03/31 10:41:35;;;;;;;49.35;8.38;;;24.00;35.10;;;;;;5011358;28;20104;-82
2024/03/31 10:44:01;;;;;;;52.90;8.52;;;24.10;35.10;;;;;;4993865;28;20030;-82
2024/03/31 10:46:28;;;;;;;49.85;7.32;;;24.10;35.00;;;;;;4993358;28;20116;-82
2024/03/31 10:49:00;;;;;;;41.13;8.00;;;24.00;34.80;;;;;;4993637;28;20388;-82
2024/03/31 10:51:27;;;;;;;42.53;8.48;;;24.10;35.10;;;;;;4993416;28;20563;-82
2024/03/31 10:53:53;;;;;;;52.13;8.45;;;24.20;35.40;;;;;;4993925;28;20061;-82
2024/03/31 10:56:28;;;;;;;56.22;10.38;;;24.10;34.60;;;;;;5010633;28;20038;-82
2024/03/31 10:59:06;;;;;;;40.00;8.57;;;24.10;34.20;;;;;;5013954;28;20038;-82
2024/03/31 11:01:37;;;;;;;45.75;8.73;;;24.10;35.00;;;;;;5012729;28;20034;-82
2024/03/31 11:04:22;;;;;;;50.92;9.68;;;24.10;35.40;;;;;;5013666;28;20516;-82
2024/03/31 11:06:49;;;;;;;51.22;9.65;;;24.20;35.20;;;;;;5013879;28;20120;-82
2024/03/31 11:09:15;;;;;;;49.15;8.10;;;24.20;35.10;;;;;;5013488;28;20038;-82
2024/03/31 11:11:41;;;;;;;44.92;8.63;;;24.30;34.80;;;;;;5014460;28;20022;-82
2024/03/31 11:14:06;;;;;;;48.60;9.88;;;24.20;35.10;;;;;;4996049;28;20440;-82
2024/03/31 11:16:32;;;;;;;48.80;8.68;;;24.30;35.50;;;;;;4992617;28;20125;-82
2024/03/31 11:18:58;;;;;;;55.42;9.98;;;24.40;34.80;;;;;;4993998;28;20037;-82
2024/03/31 11:21:34;;;;;;;54.35;11.38;;;24.20;33.90;;;;;;4992914;28;20547;-82
2024/03/31 11:24:04;;;;;;;72.45;12.80;;;24.30;33.60;;;;;;4993964;28;20105;-82
2024/03/31 11:26:30;;;;;;;64.90;11.88;;;24.30;32.70;;;;;;4993291;28;20030;-82
2024/03/31 11:28:58;;;;;;;78.55;15.55;;;24.30;32.90;;;;;;4993931;28;20448;-82
2024/03/31 11:31:23;;;;;;;66.40;14.30;;;24.30;33.20;;;;;;4993788;28;20027;-82
2024/03/31 11:33:49;;;;;;;66.88;12.13;;;24.20;32.00;;;;;;4992187;28;20515;-82
2024/03/31 11:36:17;;;;;;;59.35;11.55;;;24.20;32.20;;;;;;4993798;28;20031;-82
2024/03/31 11:38:44;;;;;;;83.45;13.13;;;24.20;32.30;;;;;;4992475;28;20026;-82
2024/03/31 11:41:11;;;;;;;71.35;12.07;;;24.30;33.00;;;;;;4992330;28;20065;-82
2024/03/31 11:43:37;;;;;;;66.28;12.50;;;24.10;32.90;;;;;;4992141;28;20085;-82
2024/03/31 11:46:03;;;;;;;81.10;13.73;;;24.00;32.80;;;;;;4992182;28;20042;-82
2024/03/31 11:48:29;;;;;;;73.63;12.15;;;24.10;33.50;;;;;;4992087;28;20054;-82
2024/03/31 11:50:55;;;;;;;70.10;13.18;;;24.20;33.00;;;;;;4992663;28;20027;-82
2024/03/31 11:53:21;;;;;;;68.32;13.05;;;24.20;32.70;;;;;;4992223;28;20030;-82
2024/03/31 11:55:47;;;;;;;65.60;13.48;;;24.20;32.80;;;;;;4992046;28;20026;-81
2024/03/31 11:58:13;;;;;;;57.70;11.02;;;24.20;33.20;;;;;;4991991;28;20035;-82
2024/03/31 12:00:49;;;;;;;62.03;12.07;;;24.20;33.00;;;;;;4992405;28;20033;-82
2024/03/31 12:03:14;;;;;;;64.70;11.93;;;24.10;33.40;;;;;;4993758;28;20018;-82
2024/03/31 12:05:44;;;;;;;64.10;11.40;;;24.00;33.10;;;;;;4993857;28;20615;-82
2024/03/31 12:08:10;;;;;;;80.13;12.52;;;24.10;33.40;;;;;;4992175;28;20030;-82
2024/03/31 12:10:35;;;;;;;62.72;12.05;;;24.00;33.70;;;;;;4992108;28;20037;-82
2024/03/31 12:13:02;;;;;;;68.55;12.65;;;24.10;33.30;;;;;;4991985;28;20027;-82
2024/03/31 12:15:28;;;;;;;62.30;12.20;;;24.10;33.00;;;;;;4992895;28;20038;-82
2024/03/31 12:18:00;;;;;;;66.72;11.13;;;23.90;32.90;;;;;;5013376;28;20030;-82
2024/03/31 12:20:26;;;;;;;59.83;9.93;;;24.00;33.70;;;;;;5012706;28;20491;-83
2024/03/31 12:22:52;;;;;;;56.60;13.25;;;24.10;34.00;;;;;;4995202;28;20277;-82
2024/03/31 12:25:19;;;;;;;61.35;11.27;;;24.00;34.00;;;;;;4995022;28;20068;-82
2024/03/31 12:27:45;;;;;;;69.60;11.65;;;23.90;33.90;;;;;;4995198;28;20037;-83
2024/03/31 12:30:11;;;;;;;62.10;11.57;;;23.90;33.90;;;;;;4994550;28;20380;-82
2024/03/31 12:32:37;;;;;;;55.58;11.23;;;23.80;34.00;;;;;;5013302;28;20072;-82
2024/03/31 12:35:04;;;;;;;47.30;10.13;;;23.80;33.70;;;;;;4978599;28;20081;-82